Terminal Aerodrome Forecast
Issued by NWS

Home | Current Version | Previous Version | Text Only | Print | Product List | Glossary On
Versions: 1 2 3 4 5 6 7 8 9 10 11 12 13 14 15 16 17 18 19 20 21 22 23 24 25 26
000
FTUS44 KLZK 201407 AAC
TAFADF
TAF AMD
KADF 201407Z 2014/2112 20004KT P6SM VCSH SCT012 BKN025
      TEMPO 2014/2018 5SM BR BKN008
     FM201800 20009KT P6SM SCT015 SCT050
     FM210100 17002KT P6SM SKC
     FM211000 00000KT 4SM BR SCT003=

USA.gov is the U.S. government's official web portal to all federal, state and local government web resources and services.